METAR Data
IDs: Format: Raw Decoded Include TAF

Data at: 0843 UTC 18 Nov 2018

PAKT 180807Z AUTO 13013KT 3SM -RA BR OVC005 08/07 A3015 RMK AO2 P0000 T00830072 TSNO
PAKT 180753Z AUTO 13012KT 2 1/2SM -RA BR OVC005 08/07 A3015 RMK AO2 SLP211 P0001 T00830072 TSNO
PAKT 180653Z AUTO 12014KT 3SM -RA BR OVC004 08/07 A3015 RMK RAE34B52 SLP211 P0001 T00830072 TSNO VIA AUTODIAL
PAKT 180635Z AUTO 13012KT 3SM BR OVC004 08/07 A3015 RMK RAE34 P0000 T00830072 TSNO VIA AUTODIAL
PAKT 180613Z AUTO 13012KT 3SM -RA BR OVC005 08/07 A3015 RMK P0000 T00830072 TSNO VIA AUTODIAL
PAKT 180553Z 12012KT 3SM -RA BR SCT007 OVC011 08/07 A3015 RMK SLP211 P0003 60009 T00830072 10083 20067 55002 VIA AUTODIAL
PAKT 180453Z 13012KT 3SM -RA BR SCT007 OVC012 08/07 A3014 RMK RAB14 SLP209 P0001 T00780067 VIA AUTODIAL
PAKT 180353Z 13015KT 3SM BR SCT007 OVC012 08/07 A3015 RMK SLP211 P0001 T00830072 VIA AUTODIAL
PAKT 180253Z 13015KT 3SM BR SCT007 OVC012 08/07 A3016 RMK RAE44 SLP213 P0001 60004 T00780067 58016 VIA AUTODIAL
PAKT 180153Z 14011KT 3SM -RA BR FEW008 OVC012 07/06 A3018 RMK AO2 SLP219 P0001 T00720061
PAKT 180053Z 14013G18KT 3SM -RA BR FEW008 OVC012 07/06 A3019 RMK SLP224 P0002 T00670056 VIA AUTODIAL
PAKT 172356Z 15009KT 3SM -RA BR FEW007 OVC012 07/05 A3021 RMK P0000 T00670050 VIA AUTODIAL
PAKT 172353Z 15011KT 3SM -RA BR OVC012 07/05 A3021 RMK SLP230 P0001 60002 T00670050 10067 20056 56014 VIA AUTODIAL
PAKT 172253Z 14015KT 3SM -RA BR OVC014 07/05 A3021 RMK SLP230 HARBOR WIND 12020KT VSBY 2V4 P0000 T00670050 VIA AUTODIAL
PAKT 172153Z 14014KT 3SM -RA BR OVC014 06/04 A3023 RMK AO2 RAB05 SLP239 HARBOR WIND 13017KT VSBY 2V4 P0001 T00610044
PAKT 172053Z 14016KT 5SM BR OVC016 06/04 A3025 RMK AO2 RAE33 SLP243 HARBOR WIND 12022KT P0000 60000 T00610044 58013
PAKT 171953Z 14013G22KT 4SM -RA BR BKN018 OVC023 06/04 A3027 RMK RAB24 SLP251 HARBOR WIND 11020KT P0000 T00610044 VIA AUTODIAL
PAKT 171853Z 14013G19KT 5SM BR BKN017 OVC025 06/04 A3027 RMK AO2 SLP252 HARBOR WIND 12019KT T00610044
PAKT 171753Z 15008KT 5SM BR OVC015 06/04 A3029 RMK AO2 RAB03E21 SLP256 HARBOR WIND 14015KT P0001 60005 T00560044 10072 20056 53003
PAKT 171653Z 15010KT 10SM OVC017 06/04 A3028 RMK RAE41 SLP254 HARBOR WIND 13014KT P0000 T00610039 VIA AUTODIAL
PAKT 171651Z 15010KT 10SM OVC017 06/04 A3028 RMK RAE41 HARBOR WIND 13014KT P0000 VIA AUTODIAL
PAKT 171553Z 16008KT 5SM -RA BR SCT022 OVC033 06/04 A3027 RMK RAB20 SLP251 HARBOR WIND 13015KT P0003 T00610039 VIA AUTODIAL
PAKT 171503Z 16007G15KT 10SM OVC037 07/02 A3028 RMK HARBOR WIND 12015KT T00670022 VIA AUTODIAL
PAKT 171453Z AUTO 16007KT 10SM OVC037 07/03 A3028 RMK AO2 RAE00B19E49 SLP253 P0000 60001 T00670028 56007 TSNO
PAKT 171353Z AUTO 16006KT 10SM -RA OVC038 07/03 A3028 RMK RAB33 SLP256 P0000 T00670028 TSNO VIA AUTODIAL
PAKT 171253Z AUTO 16007KT 10SM OVC042 07/03 A3028 RMK AO2 RAB1155E49 SLP255 P0001 T00670028 TSNO
PAKT 171153Z AUTO 14006KT 10SM OVC047 07/03 A3030 RMK AO2 RAB1059E08 SLP261 P0000 60000 T00720028 10072 20061 57010 TSNO
PAKT 171053Z AUTO 13005KT 10SM OVC050 07/03 A3031 RMK SLP264 T00670033 TSNO VIA AUTODIAL
PAKT 170953Z AUTO 12006KT 10SM BKN050 OVC060 07/03 A3032 RMK SLP267 T00670033 TSNO VIA AUTODIAL
PAKT 170853Z AUTO 12007KT 10SM OVC060 06/04 A3033 RMK SLP271 T00610039 400720044 56005 TSNO VIA AUTODIAL
PAKT 170753Z AUTO 13004KT 10SM OVC055 06/04 A3033 RMK SLP272 T00610044 TSNO VIA AUTODIAL
PAKT 170653Z AUTO 13004KT 10SM OVC055 06/04 A3034 RMK SLP273 T00610044 TSNO VIA AUTODIAL
PAKT 170553Z 13005KT 10SM BKN070 OVC090 06/04 A3034 RMK SLP276 HARBOR WIND VRB04KT T00610044 10067 20056 50000 VIA AUTODIAL
PAKT 170453Z 13005KT 10SM OVC080 06/04 A3034 RMK SLP276 HARBOR WIND 07004KT T00610039 VIA AUTODIAL
PAKT 170353Z 13004KT 10SM OVC080 06/04 A3034 RMK SLP275 HARBOR WIND 12004KT T00610044 VIA AUTODIAL
PAKT 170253Z 13005KT 10SM OVC085 06/04 A3034 RMK SLP275 HARBOR WIND 15005KT T00610039 58005 VIA AUTODIAL
PAKT 170153Z 16004KT 10SM OVC095 06/04 A3035 RMK SLP278 HARBOR WIND VRB05KT T00610044 VIA AUTODIAL
PAKT 170053Z 00000KT 10SM OVC110 06/04 A3035 RMK AO2 SLP279 HARBOR WIND VRB04KT T00610039
PAKT 162353Z 31003KT 10SM SCT120 07/04 A3036 RMK AO2 SLP281 HARBOR WIND 26005KT T00670044 10072 20050 55004
PAKT 162253Z 00000KT 10SM FEW015 FEW120 07/04 A3036 RMK SLP280 HARBOR WIND 12005KT T00720039 VIA AUTODIAL
PAKT 162153Z 00000KT 10SM CLR 07/04 A3036 RMK AO2 SLP281 HARBOR WIND 27005KT T00670039
PAKT 162053Z 00000KT 10SM FEW010 06/03 A3037 RMK SLP285 HARBOR WIND 27005KT T00610033 50001 VIA AUTODIAL